sensor_id;sensor_type;location;lat;lon;timestamp;P1;durP1;ratioP1;P2;durP2;ratioP2
46339;SDS011;47273;49.274;8.708;2022-08-25T03:31:09;13.57;;;11.63;;
46339;SDS011;47273;49.274;8.708;2022-08-25T03:33:35;12.70;;;10.88;;
46339;SDS011;47273;49.274;8.708;2022-08-25T03:36:06;13.50;;;11.75;;
46339;SDS011;47273;49.274;8.708;2022-08-25T03:38:33;12.60;;;11.25;;
46339;SDS011;47273;49.274;8.708;2022-08-25T03:41:00;12.63;;;11.30;;
46339;SDS011;47273;49.274;8.708;2022-08-25T03:43:26;15.57;;;11.18;;
46339;SDS011;47273;49.274;8.708;2022-08-25T03:45:51;17.92;;;12.20;;
46339;SDS011;47273;49.274;8.708;2022-08-25T03:48:17;12.65;;;11.35;;
46339;SDS011;47273;49.274;8.708;2022-08-25T03:50:47;14.38;;;12.68;;
46339;SDS011;47273;49.274;8.708;2022-08-25T03:53:14;12.25;;;10.98;;
46339;SDS011;47273;49.274;8.708;2022-08-25T03:55:40;14.00;;;11.95;;
46339;SDS011;47273;49.274;8.708;2022-08-25T03:58:06;13.40;;;12.00;;
46339;SDS011;47273;49.274;8.708;2022-08-25T04:00:32;15.02;;;11.18;;
46339;SDS011;47273;49.274;8.708;2022-08-25T04:02:58;15.50;;;12.48;;
46339;SDS011;47273;49.274;8.708;2022-08-25T04:05:23;14.70;;;11.98;;
46339;SDS011;47273;49.274;8.708;2022-08-25T04:07:49;13.23;;;11.88;;
46339;SDS011;47273;49.274;8.708;2022-08-25T04:10:15;16.98;;;12.98;;
46339;SDS011;47273;49.274;8.708;2022-08-25T04:12:40;13.23;;;11.80;;
46339;SDS011;47273;49.274;8.708;2022-08-25T04:15:07;14.15;;;12.40;;
46339;SDS011;47273;49.274;8.708;2022-08-25T04:17:35;13.85;;;12.43;;
46339;SDS011;47273;49.274;8.708;2022-08-25T04:20:03;13.90;;;11.90;;
46339;SDS011;47273;49.274;8.708;2022-08-25T04:22:29;15.20;;;11.70;;
46339;SDS011;47273;49.274;8.708;2022-08-25T04:24:57;15.02;;;12.52;;
46339;SDS011;47273;49.274;8.708;2022-08-25T04:27:23;13.65;;;11.75;;
46339;SDS011;47273;49.274;8.708;2022-08-25T04:29:48;14.07;;;12.57;;
46339;SDS011;47273;49.274;8.708;2022-08-25T04:32:14;18.92;;;13.07;;
46339;SDS011;47273;49.274;8.708;2022-08-25T04:34:40;13.68;;;12.10;;
46339;SDS011;47273;49.274;8.708;2022-08-25T04:37:07;16.25;;;12.50;;
46339;SDS011;47273;49.274;8.708;2022-08-25T04:39:33;13.63;;;11.38;;
46339;SDS011;47273;49.274;8.708;2022-08-25T04:42:05;16.88;;;12.10;;
46339;SDS011;47273;49.274;8.708;2022-08-25T04:44:31;14.23;;;12.27;;
46339;SDS011;47273;49.274;8.708;2022-08-25T04:46:57;13.60;;;12.20;;
46339;SDS011;47273;49.274;8.708;2022-08-25T04:49:24;13.80;;;12.07;;
46339;SDS011;47273;49.274;8.708;2022-08-25T04:51:49;13.13;;;11.82;;
46339;SDS011;47273;49.274;8.708;2022-08-25T04:54:18;15.52;;;11.98;;
46339;SDS011;47273;49.274;8.708;2022-08-25T04:56:47;14.63;;;12.82;;
46339;SDS011;47273;49.274;8.708;2022-08-25T04:59:14;15.00;;;12.40;;
46339;SDS011;47273;49.274;8.708;2022-08-25T05:01:41;14.98;;;12.48;;
46339;SDS011;47273;49.274;8.708;2022-08-25T05:04:08;14.57;;;13.07;;
46339;SDS011;47273;49.274;8.708;2022-08-25T05:06:35;14.13;;;12.65;;
46339;SDS011;47273;49.274;8.708;2022-08-25T05:09:01;13.90;;;12.38;;
46339;SDS011;47273;49.274;8.708;2022-08-25T05:11:34;15.57;;;12.32;;
46339;SDS011;47273;49.274;8.708;2022-08-25T05:14:01;14.13;;;12.52;;
46339;SDS011;47273;49.274;8.708;2022-08-25T05:16:27;18.52;;;12.30;;
46339;SDS011;47273;49.274;8.708;2022-08-25T05:18:53;14.68;;;11.90;;
46339;SDS011;47273;49.274;8.708;2022-08-25T05:21:22;16.13;;;12.90;;
46339;SDS011;47273;49.274;8.708;2022-08-25T05:23:49;16.17;;;12.43;;
46339;SDS011;47273;49.274;8.708;2022-08-25T05:26:22;15.73;;;12.93;;
46339;SDS011;47273;49.274;8.708;2022-08-25T05:28:48;14.75;;;13.25;;
46339;SDS011;47273;49.274;8.708;2022-08-25T05:31:16;15.63;;;12.60;;
46339;SDS011;47273;49.274;8.708;2022-08-25T05:33:42;13.73;;;11.90;;
46339;SDS011;47273;49.274;8.708;2022-08-25T05:36:08;16.50;;;12.88;;
46339;SDS011;47273;49.274;8.708;2022-08-25T05:38:36;16.73;;;12.30;;
46339;SDS011;47273;49.274;8.708;2022-08-25T05:41:04;16.77;;;12.82;;
46339;SDS011;47273;49.274;8.708;2022-08-25T05:43:34;16.50;;;13.35;;
46339;SDS011;47273;49.274;8.708;2022-08-25T05:46:02;15.80;;;13.38;;
46339;SDS011;47273;49.274;8.708;2022-08-25T05:48:28;18.02;;;12.93;;
46339;SDS011;47273;49.274;8.708;2022-08-25T05:50:55;16.58;;;12.50;;
46339;SDS011;47273;49.274;8.708;2022-08-25T05:53:24;15.00;;;13.40;;
46339;SDS011;47273;49.274;8.708;2022-08-25T05:55:50;13.65;;;12.27;;
46339;SDS011;47273;49.274;8.708;2022-08-25T05:58:18;16.52;;;13.30;;
46339;SDS011;47273;49.274;8.708;2022-08-25T06:00:47;14.13;;;12.77;;
46339;SDS011;47273;49.274;8.708;2022-08-25T06:03:14;20.50;;;12.63;;
46339;SDS011;47273;49.274;8.708;2022-08-25T06:05:39;13.98;;;12.63;;
46339;SDS011;47273;49.274;8.708;2022-08-25T06:08:08;17.33;;;13.00;;
46339;SDS011;47273;49.274;8.708;2022-08-25T06:10:37;17.95;;;13.23;;
46339;SDS011;47273;49.274;8.708;2022-08-25T06:13:12;15.85;;;13.30;;
46339;SDS011;47273;49.274;8.708;2022-08-25T06:15:46;15.00;;;12.98;;
46339;SDS011;47273;49.274;8.708;2022-08-25T06:18:12;15.63;;;12.60;;
46339;SDS011;47273;49.274;8.708;2022-08-25T06:20:38;15.07;;;13.48;;
46339;SDS011;47273;49.274;8.708;2022-08-25T06:23:04;16.73;;;13.52;;
46339;SDS011;47273;49.274;8.708;2022-08-25T06:25:33;15.52;;;13.88;;
46339;SDS011;47273;49.274;8.708;2022-08-25T06:27:59;15.18;;;13.73;;
46339;SDS011;47273;49.274;8.708;2022-08-25T06:30:24;15.13;;;13.43;;
46339;SDS011;47273;49.274;8.708;2022-08-25T06:32:50;14.77;;;13.30;;
46339;SDS011;47273;49.274;8.708;2022-08-25T06:35:17;21.88;;;14.60;;
46339;SDS011;47273;49.274;8.708;2022-08-25T06:37:45;14.73;;;13.27;;
46339;SDS011;47273;49.274;8.708;2022-08-25T06:40:12;18.38;;;13.70;;
46339;SDS011;47273;49.274;8.708;2022-08-25T06:42:39;15.68;;;13.98;;
46339;SDS011;47273;49.274;8.708;2022-08-25T06:45:05;15.93;;;13.40;;
46339;SDS011;47273;49.274;8.708;2022-08-25T06:47:32;16.20;;;14.02;;
46339;SDS011;47273;49.274;8.708;2022-08-25T06:50:07;15.30;;;13.80;;
46339;SDS011;47273;49.274;8.708;2022-08-25T06:52:33;16.30;;;13.45;;
46339;SDS011;47273;49.274;8.708;2022-08-25T06:54:59;15.55;;;13.95;;
46339;SDS011;47273;49.274;8.708;2022-08-25T06:57:26;16.30;;;13.73;;
46339;SDS011;47273;49.274;8.708;2022-08-25T06:59:52;16.52;;;13.10;;
46339;SDS011;47273;49.274;8.708;2022-08-25T07:02:18;15.52;;;13.32;;
46339;SDS011;47273;49.274;8.708;2022-08-25T07:04:47;16.30;;;14.55;;
46339;SDS011;47273;49.274;8.708;2022-08-25T07:07:12;17.58;;;13.40;;
46339;SDS011;47273;49.274;8.708;2022-08-25T07:09:38;14.43;;;12.93;;
46339;SDS011;47273;49.274;8.708;2022-08-25T07:12:04;15.55;;;13.13;;
46339;SDS011;47273;49.274;8.708;2022-08-25T07:14:30;15.50;;;13.88;;
46339;SDS011;47273;49.274;8.708;2022-08-25T07:16:55;15.25;;;13.82;;
46339;SDS011;47273;49.274;8.708;2022-08-25T07:19:21;15.77;;;14.27;;
46339;SDS011;47273;49.274;8.708;2022-08-25T07:21:51;15.27;;;13.57;;
46339;SDS011;47273;49.274;8.708;2022-08-25T07:24:20;16.80;;;14.95;;
46339;SDS011;47273;49.274;8.708;2022-08-25T07:26:46;15.18;;;13.68;;
46339;SDS011;47273;49.274;8.708;2022-08-25T07:29:17;16.60;;;14.63;;
46339;SDS011;47273;49.274;8.708;2022-08-25T07:31:46;17.77;;;13.82;;
46339;SDS011;47273;49.274;8.708;2022-08-25T07:34:12;15.50;;;14.00;;
46339;SDS011;47273;49.274;8.708;2022-08-25T07:36:56;16.17;;;13.50;;
46339;SDS011;47273;49.274;8.708;2022-08-25T07:39:22;15.88;;;14.27;;
46339;SDS011;47273;49.274;8.708;2022-08-25T07:41:51;19.85;;;14.70;;
46339;SDS011;47273;49.274;8.708;2022-08-25T07:44:17;15.32;;;13.80;;
46339;SDS011;47273;49.274;8.708;2022-08-25T07:46:43;15.20;;;13.70;;
46339;SDS011;47273;49.274;8.708;2022-08-25T07:49:09;14.68;;;12.65;;
46339;SDS011;47273;49.274;8.708;2022-08-25T07:51:35;14.93;;;13.43;;
46339;SDS011;47273;49.274;8.708;2022-08-25T07:54:00;14.70;;;13.32;;
46339;SDS011;47273;49.274;8.708;2022-08-25T07:56:26;15.10;;;13.60;;
46339;SDS011;47273;49.274;8.708;2022-08-25T07:58:52;22.20;;;14.85;;
46339;SDS011;47273;49.274;8.708;2022-08-25T08:01:19;16.67;;;13.80;;
46339;SDS011;47273;49.274;8.708;2022-08-25T08:03:46;15.20;;;13.80;;
46339;SDS011;47273;49.274;8.708;2022-08-25T08:06:16;16.25;;;13.65;;
46339;SDS011;47273;49.274;8.708;2022-08-25T08:08:48;15.20;;;13.67;;
46339;SDS011;47273;49.274;8.708;2022-08-25T08:11:19;15.40;;;13.82;;
46339;SDS011;47273;49.274;8.708;2022-08-25T08:13:48;15.32;;;13.35;;
46339;SDS011;47273;49.274;8.708;2022-08-25T08:16:16;16.02;;;14.10;;
46339;SDS011;47273;49.274;8.708;2022-08-25T08:18:44;15.95;;;13.45;;
46339;SDS011;47273;49.274;8.708;2022-08-25T08:21:11;14.98;;;13.57;;
46339;SDS011;47273;49.274;8.708;2022-08-25T08:23:39;17.17;;;14.23;;
46339;SDS011;47273;49.274;8.708;2022-08-25T08:26:08;15.82;;;14.25;;
46339;SDS011;47273;49.274;8.708;2022-08-25T08:28:37;15.77;;;14.18;;
46339;SDS011;47273;49.274;8.708;2022-08-25T08:31:03;18.27;;;13.85;;
46339;SDS011;47273;49.274;8.708;2022-08-25T08:33:29;16.05;;;13.45;;
46339;SDS011;47273;49.274;8.708;2022-08-25T08:36:00;14.98;;;13.48;;
46339;SDS011;47273;49.274;8.708;2022-08-25T08:38:36;14.95;;;13.02;;
46339;SDS011;47273;49.274;8.708;2022-08-25T08:55:47;14.77;;;13.13;;
46339;SDS011;47273;49.274;8.708;2022-08-25T09:00:53;14.18;;;12.82;;
46339;SDS011;47273;49.274;8.708;2022-08-25T09:03:32;13.27;;;12.07;;
46339;SDS011;47273;49.274;8.708;2022-08-25T09:06:05;13.52;;;12.15;;
46339;SDS011;47273;49.274;8.708;2022-08-25T09:08:37;13.55;;;12.05;;
46339;SDS011;47273;49.274;8.708;2022-08-25T09:11:13;12.80;;;11.60;;
46339;SDS011;47273;49.274;8.708;2022-08-25T09:16:36;15.82;;;12.50;;
46339;SDS011;47273;49.274;8.708;2022-08-25T09:27:37;13.30;;;12.10;;
46339;SDS011;47273;49.274;8.708;2022-08-25T09:30:29;13.27;;;12.10;;
46339;SDS011;47273;49.274;8.708;2022-08-25T09:33:22;12.75;;;11.57;;
46339;SDS011;47273;49.274;8.708;2022-08-25T09:35:50;13.15;;;11.85;;
46339;SDS011;47273;49.274;8.708;2022-08-25T09:38:22;12.15;;;11.15;;
46339;SDS011;47273;49.274;8.708;2022-08-25T09:40:52;12.90;;;11.70;;
46339;SDS011;47273;49.274;8.708;2022-08-25T09:43:28;12.30;;;11.30;;
46339;SDS011;47273;49.274;8.708;2022-08-25T09:51:39;13.45;;;12.25;;
46339;SDS011;47273;49.274;8.708;2022-08-25T09:59:30;12.43;;;11.32;;
46339;SDS011;47273;49.274;8.708;2022-08-25T10:02:04;13.18;;;11.98;;
46339;SDS011;47273;49.274;8.708;2022-08-25T10:04:49;13.02;;;11.55;;
46339;SDS011;47273;49.274;8.708;2022-08-25T10:10:02;12.88;;;11.52;;
46339;SDS011;47273;49.274;8.708;2022-08-25T10:12:44;12.93;;;11.60;;
46339;SDS011;47273;49.274;8.708;2022-08-25T10:15:20;13.15;;;11.95;;
46339;SDS011;47273;49.274;8.708;2022-08-25T10:17:50;13.07;;;11.57;;
46339;SDS011;47273;49.274;8.708;2022-08-25T10:20:24;13.00;;;11.63;;
46339;SDS011;47273;49.274;8.708;2022-08-25T10:23:07;12.88;;;11.57;;
46339;SDS011;47273;49.274;8.708;2022-08-25T10:25:36;12.55;;;11.32;;
46339;SDS011;47273;49.274;8.708;2022-08-25T10:30:53;13.02;;;11.63;;
46339;SDS011;47273;49.274;8.708;2022-08-25T10:33:38;12.40;;;11.30;;
46339;SDS011;47273;49.274;8.708;2022-08-25T10:36:09;12.43;;;11.35;;
46339;SDS011;47273;49.274;8.708;2022-08-25T10:38:45;12.52;;;11.30;;
46339;SDS011;47273;49.274;8.708;2022-08-25T11:04:04;12.60;;;11.20;;
46339;SDS011;47273;49.274;8.708;2022-08-25T11:06:42;12.07;;;11.13;;
46339;SDS011;47273;49.274;8.708;2022-08-25T11:09:17;12.88;;;11.73;;
46339;SDS011;47273;49.274;8.708;2022-08-25T11:15:16;12.40;;;11.07;;
46339;SDS011;47273;49.274;8.708;2022-08-25T11:20:22;12.98;;;11.88;;
46339;SDS011;47273;49.274;8.708;2022-08-25T11:22:56;15.05;;;12.07;;
46339;SDS011;47273;49.274;8.708;2022-08-25T11:25:35;13.45;;;12.35;;
46339;SDS011;47273;49.274;8.708;2022-08-25T11:28:17;12.63;;;11.63;;
46339;SDS011;47273;49.274;8.708;2022-08-25T11:30:47;13.90;;;12.80;;
46339;SDS011;47273;49.274;8.708;2022-08-25T11:33:15;13.85;;;12.60;;
46339;SDS011;47273;49.274;8.708;2022-08-25T11:36:06;13.35;;;12.25;;
46339;SDS011;47273;49.274;8.708;2022-08-25T11:46:56;13.68;;;12.68;;
46339;SDS011;47273;49.274;8.708;2022-08-25T11:55:03;13.75;;;12.73;;
46339;SDS011;47273;49.274;8.708;2022-08-25T11:57:35;13.60;;;12.50;;
46339;SDS011;47273;49.274;8.708;2022-08-25T12:00:06;14.15;;;12.88;;
46339;SDS011;47273;49.274;8.708;2022-08-25T12:02:45;12.90;;;11.95;;
46339;SDS011;47273;49.274;8.708;2022-08-25T12:10:52;14.10;;;13.00;;
46339;SDS011;47273;49.274;8.708;2022-08-25T12:13:41;13.95;;;12.85;;
46339;SDS011;47273;49.274;8.708;2022-08-25T12:21:50;14.10;;;13.10;;
46339;SDS011;47273;49.274;8.708;2022-08-25T12:24:52;13.75;;;12.48;;
46339;SDS011;47273;49.274;8.708;2022-08-25T12:27:31;13.68;;;12.52;;
46339;SDS011;47273;49.274;8.708;2022-08-25T12:35:59;12.53;;;11.53;;
46339;SDS011;47273;49.274;8.708;2022-08-25T12:38:31;21.63;;;12.50;;
46339;SDS011;47273;49.274;8.708;2022-08-25T12:43:36;12.05;;;11.00;;
46339;SDS011;47273;49.274;8.708;2022-08-25T12:56:46;12.80;;;11.80;;
46339;SDS011;47273;49.274;8.708;2022-08-25T12:59:30;12.45;;;11.35;;
46339;SDS011;47273;49.274;8.708;2022-08-25T13:13:47;11.93;;;10.73;;
46339;SDS011;47273;49.274;8.708;2022-08-25T13:16:21;10.65;;;9.85;;
46339;SDS011;47273;49.274;8.708;2022-08-25T13:18:50;11.43;;;10.43;;
46339;SDS011;47273;49.274;8.708;2022-08-25T13:24:06;11.57;;;10.50;;
46339;SDS011;47273;49.274;8.708;2022-08-25T13:26:39;10.82;;;9.93;;
46339;SDS011;47273;49.274;8.708;2022-08-25T13:31:35;10.95;;;9.95;;
46339;SDS011;47273;49.274;8.708;2022-08-25T13:34:17;11.52;;;10.40;;
46339;SDS011;47273;49.274;8.708;2022-08-25T13:36:45;13.25;;;10.30;;
46339;SDS011;47273;49.274;8.708;2022-08-25T13:39:31;10.50;;;9.63;;
46339;SDS011;47273;49.274;8.708;2022-08-25T13:41:59;10.80;;;9.95;;
46339;SDS011;47273;49.274;8.708;2022-08-25T13:44:27;11.00;;;9.98;;
46339;SDS011;47273;49.274;8.708;2022-08-25T13:47:11;11.02;;;10.13;;
46339;SDS011;47273;49.274;8.708;2022-08-25T13:49:38;10.95;;;9.98;;
46339;SDS011;47273;49.274;8.708;2022-08-25T13:52:06;10.85;;;9.93;;
46339;SDS011;47273;49.274;8.708;2022-08-25T13:54:40;10.98;;;10.07;;
46339;SDS011;47273;49.274;8.708;2022-08-25T13:57:21;10.77;;;9.80;;
46339;SDS011;47273;49.274;8.708;2022-08-25T13:59:50;11.25;;;9.85;;
46339;SDS011;47273;49.274;8.708;2022-08-25T14:02:38;11.68;;;9.57;;
46339;SDS011;47273;49.274;8.708;2022-08-25T14:05:09;12.07;;;10.18;;
46339;SDS011;47273;49.274;8.708;2022-08-25T14:07:37;11.85;;;10.15;;
46339;SDS011;47273;49.274;8.708;2022-08-25T14:12:42;11.35;;;10.25;;
46339;SDS011;47273;49.274;8.708;2022-08-25T14:17:44;11.93;;;10.02;;
46339;SDS011;47273;49.274;8.708;2022-08-25T14:20:22;11.02;;;9.98;;
46339;SDS011;47273;49.274;8.708;2022-08-25T14:23:06;11.48;;;10.27;;
46339;SDS011;47273;49.274;8.708;2022-08-25T14:25:37;10.65;;;9.55;;
46339;SDS011;47273;49.274;8.708;2022-08-25T14:28:04;10.57;;;9.68;;
46339;SDS011;47273;49.274;8.708;2022-08-25T14:30:33;10.68;;;9.68;;
46339;SDS011;47273;49.274;8.708;2022-08-25T14:33:05;10.90;;;9.55;;
46339;SDS011;47273;49.274;8.708;2022-08-25T14:35:33;10.18;;;9.18;;
46339;SDS011;47273;49.274;8.708;2022-08-25T14:38:02;12.55;;;9.25;;
46339;SDS011;47273;49.274;8.708;2022-08-25T14:40:33;10.43;;;9.52;;
46339;SDS011;47273;49.274;8.708;2022-08-25T14:42:59;14.32;;;9.52;;
46339;SDS011;47273;49.274;8.708;2022-08-25T14:45:25;10.10;;;9.20;;
46339;SDS011;47273;49.274;8.708;2022-08-25T14:47:51;10.55;;;9.65;;
46339;SDS011;47273;49.274;8.708;2022-08-25T14:50:17;11.13;;;9.30;;
46339;SDS011;47273;49.274;8.708;2022-08-25T14:52:44;10.18;;;9.38;;
46339;SDS011;47273;49.274;8.708;2022-08-25T14:55:10;10.43;;;9.30;;
46339;SDS011;47273;49.274;8.708;2022-08-25T14:57:37;10.27;;;9.38;;
46339;SDS011;47273;49.274;8.708;2022-08-25T15:00:03;9.82;;;9.02;;
46339;SDS011;47273;49.274;8.708;2022-08-25T15:02:29;9.90;;;9.00;;
46339;SDS011;47273;49.274;8.708;2022-08-25T15:04:58;9.45;;;8.63;;
46339;SDS011;47273;49.274;8.708;2022-08-25T15:07:26;9.98;;;8.65;;
46339;SDS011;47273;49.274;8.708;2022-08-25T15:12:37;11.30;;;9.88;;
46339;SDS011;47273;49.274;8.708;2022-08-25T15:15:02;9.75;;;8.95;;
46339;SDS011;47273;49.274;8.708;2022-08-25T15:17:29;14.68;;;9.73;;
46339;SDS011;47273;49.274;8.708;2022-08-25T15:19:55;13.82;;;9.82;;
46339;SDS011;47273;49.274;8.708;2022-08-25T15:22:21;9.35;;;7.95;;
46339;SDS011;47273;49.274;8.708;2022-08-25T15:24:47;10.40;;;9.10;;
46339;SDS011;47273;49.274;8.708;2022-08-25T15:27:13;10.55;;;8.90;;
46339;SDS011;47273;49.274;8.708;2022-08-25T15:29:39;9.48;;;8.52;;
46339;SDS011;47273;49.274;8.708;2022-08-25T15:32:06;10.45;;;8.90;;
46339;SDS011;47273;49.274;8.708;2022-08-25T15:34:32;9.75;;;8.82;;
46339;SDS011;47273;49.274;8.708;2022-08-25T15:36:59;10.07;;;9.18;;
46339;SDS011;47273;49.274;8.708;2022-08-25T15:39:34;9.45;;;8.65;;
46339;SDS011;47273;49.274;8.708;2022-08-25T15:42:00;10.07;;;9.07;;
46339;SDS011;47273;49.274;8.708;2022-08-25T15:44:27;11.27;;;8.63;;
46339;SDS011;47273;49.274;8.708;2022-08-25T15:46:52;13.07;;;8.90;;
46339;SDS011;47273;49.274;8.708;2022-08-25T15:49:18;12.70;;;8.73;;
46339;SDS011;47273;49.274;8.708;2022-08-25T15:51:45;9.52;;;8.55;;
46339;SDS011;47273;49.274;8.708;2022-08-25T15:54:10;9.70;;;8.57;;
46339;SDS011;47273;49.274;8.708;2022-08-25T15:56:38;9.38;;;8.48;;
46339;SDS011;47273;49.274;8.708;2022-08-25T15:59:04;9.75;;;8.93;;
46339;SDS011;47273;49.274;8.708;2022-08-25T16:01:30;9.23;;;8.38;;
46339;SDS011;47273;49.274;8.708;2022-08-25T16:03:56;9.25;;;8.43;;
46339;SDS011;47273;49.274;8.708;2022-08-25T16:06:23;9.80;;;8.88;;
46339;SDS011;47273;49.274;8.708;2022-08-25T16:08:50;10.23;;;8.63;;
46339;SDS011;47273;49.274;8.708;2022-08-25T16:11:20;9.35;;;8.50;;
46339;SDS011;47273;49.274;8.708;2022-08-25T16:13:48;9.50;;;8.70;;
46339;SDS011;47273;49.274;8.708;2022-08-25T16:16:15;9.32;;;8.50;;
46339;SDS011;47273;49.274;8.708;2022-08-25T16:18:42;9.10;;;8.30;;
46339;SDS011;47273;49.274;8.708;2022-08-25T16:21:09;9.63;;;8.45;;
46339;SDS011;47273;49.274;8.708;2022-08-25T16:23:37;10.07;;;9.13;;
46339;SDS011;47273;49.274;8.708;2022-08-25T16:26:04;10.48;;;9.57;;
46339;SDS011;47273;49.274;8.708;2022-08-25T16:28:32;11.35;;;10.20;;
46339;SDS011;47273;49.274;8.708;2022-08-25T16:31:02;9.18;;;8.45;;
46339;SDS011;47273;49.274;8.708;2022-08-25T16:33:28;10.05;;;8.90;;
46339;SDS011;47273;49.274;8.708;2022-08-25T16:36:07;13.95;;;8.82;;
46339;SDS011;47273;49.274;8.708;2022-08-25T16:38:35;10.00;;;8.48;;
46339;SDS011;47273;49.274;8.708;2022-08-25T16:41:05;11.38;;;9.00;;
46339;SDS011;47273;49.274;8.708;2022-08-25T16:43:32;9.27;;;8.38;;
46339;SDS011;47273;49.274;8.708;2022-08-25T16:45:59;9.88;;;8.88;;
46339;SDS011;47273;49.274;8.708;2022-08-25T16:48:29;10.50;;;8.20;;
46339;SDS011;47273;49.274;8.708;2022-08-25T16:50:55;12.85;;;8.25;;
46339;SDS011;47273;49.274;8.708;2022-08-25T16:53:21;9.38;;;8.20;;
46339;SDS011;47273;49.274;8.708;2022-08-25T16:56:06;9.18;;;8.23;;
46339;SDS011;47273;49.274;8.708;2022-08-25T16:58:33;9.18;;;8.27;;
46339;SDS011;47273;49.274;8.708;2022-08-25T17:01:10;11.73;;;8.63;;
46339;SDS011;47273;49.274;8.708;2022-08-25T17:03:39;8.75;;;7.97;;
46339;SDS011;47273;49.274;8.708;2022-08-25T17:06:06;8.88;;;7.97;;
46339;SDS011;47273;49.274;8.708;2022-08-25T17:08:33;11.40;;;8.30;;
46339;SDS011;47273;49.274;8.708;2022-08-25T17:11:13;8.82;;;7.93;;
46339;SDS011;47273;49.274;8.708;2022-08-25T17:13:42;9.30;;;8.40;;
46339;SDS011;47273;49.274;8.708;2022-08-25T17:16:09;10.02;;;8.20;;
46339;SDS011;47273;49.274;8.708;2022-08-25T17:18:36;8.90;;;8.00;;
46339;SDS011;47273;49.274;8.708;2022-08-25T17:21:06;9.38;;;7.68;;
46339;SDS011;47273;49.274;8.708;2022-08-25T17:23:37;8.98;;;8.10;;
46339;SDS011;47273;49.274;8.708;2022-08-25T17:26:04;9.18;;;8.02;;
46339;SDS011;47273;49.274;8.708;2022-08-25T17:28:31;12.52;;;8.85;;
46339;SDS011;47273;49.274;8.708;2022-08-25T17:30:57;9.73;;;8.23;;
46339;SDS011;47273;49.274;8.708;2022-08-25T17:33:24;11.57;;;8.25;;
46339;SDS011;47273;49.274;8.708;2022-08-25T17:35:51;8.98;;;8.18;;
46339;SDS011;47273;49.274;8.708;2022-08-25T17:38:19;9.02;;;8.13;;
46339;SDS011;47273;49.274;8.708;2022-08-25T17:40:50;9.25;;;8.35;;
46339;SDS011;47273;49.274;8.708;2022-08-25T17:43:18;10.75;;;7.60;;
46339;SDS011;47273;49.274;8.708;2022-08-25T17:45:45;8.23;;;7.35;;
46339;SDS011;47273;49.274;8.708;2022-08-25T17:48:11;8.65;;;7.60;;
46339;SDS011;47273;49.274;8.708;2022-08-25T17:50:38;8.85;;;7.72;;
46339;SDS011;47273;49.274;8.708;2022-08-25T17:53:05;9.52;;;7.43;;
46339;SDS011;47273;49.274;8.708;2022-08-25T17:55:32;8.95;;;7.80;;
46339;SDS011;47273;49.274;8.708;2022-08-25T17:57:59;7.85;;;7.15;;
46339;SDS011;47273;49.274;8.708;2022-08-25T18:00:26;11.50;;;6.90;;
46339;SDS011;47273;49.274;8.708;2022-08-25T18:02:53;8.55;;;6.97;;
46339;SDS011;47273;49.274;8.708;2022-08-25T18:05:19;9.80;;;7.28;;
46339;SDS011;47273;49.274;8.708;2022-08-25T18:07:44;8.50;;;7.55;;
46339;SDS011;47273;49.274;8.708;2022-08-25T18:10:10;9.60;;;7.25;;
46339;SDS011;47273;49.274;8.708;2022-08-25T18:12:36;9.93;;;7.50;;
46339;SDS011;47273;49.274;8.708;2022-08-25T18:15:03;9.15;;;7.47;;
46339;SDS011;47273;49.274;8.708;2022-08-25T18:17:29;11.30;;;7.80;;
46339;SDS011;47273;49.274;8.708;2022-08-25T18:19:55;9.35;;;7.45;;
46339;SDS011;47273;49.274;8.708;2022-08-25T18:22:21;11.40;;;7.40;;
46339;SDS011;47273;49.274;8.708;2022-08-25T18:24:48;9.40;;;7.88;;
46339;SDS011;47273;49.274;8.708;2022-08-25T18:27:14;8.85;;;7.95;;
46339;SDS011;47273;49.274;8.708;2022-08-25T18:29:40;12.50;;;8.38;;
46339;SDS011;47273;49.274;8.708;2022-08-25T18:32:06;8.68;;;7.85;;
46339;SDS011;47273;49.274;8.708;2022-08-25T18:34:33;9.05;;;7.30;;
46339;SDS011;47273;49.274;8.708;2022-08-25T18:37:00;10.13;;;7.72;;
46339;SDS011;47273;49.274;8.708;2022-08-25T18:39:47;11.30;;;7.47;;
46339;SDS011;47273;49.274;8.708;2022-08-25T18:42:32;10.90;;;8.30;;
46339;SDS011;47273;49.274;8.708;2022-08-25T18:44:59;11.77;;;8.15;;
46339;SDS011;47273;49.274;8.708;2022-08-25T18:47:25;13.60;;;9.02;;
46339;SDS011;47273;49.274;8.708;2022-08-25T18:49:51;17.63;;;8.82;;
46339;SDS011;47273;49.274;8.708;2022-08-25T18:52:16;11.05;;;8.23;;
46339;SDS011;47273;49.274;8.708;2022-08-25T18:54:42;11.63;;;7.72;;
46339;SDS011;47273;49.274;8.708;2022-08-25T18:57:08;13.15;;;8.70;;
46339;SDS011;47273;49.274;8.708;2022-08-25T18:59:34;11.15;;;8.50;;
46339;SDS011;47273;49.274;8.708;2022-08-25T19:02:00;10.52;;;8.57;;
46339;SDS011;47273;49.274;8.708;2022-08-25T19:04:25;10.35;;;8.32;;
46339;SDS011;47273;49.274;8.708;2022-08-25T19:06:51;10.23;;;8.38;;
46339;SDS011;47273;49.274;8.708;2022-08-25T19:09:16;8.88;;;7.97;;
46339;SDS011;47273;49.274;8.708;2022-08-25T19:11:42;12.38;;;8.20;;
46339;SDS011;47273;49.274;8.708;2022-08-25T19:14:08;10.57;;;8.48;;
46339;SDS011;47273;49.274;8.708;2022-08-25T19:16:39;8.98;;;8.07;;
46339;SDS011;47273;49.274;8.708;2022-08-25T19:19:06;9.30;;;8.20;;
46339;SDS011;47273;49.274;8.708;2022-08-25T19:21:35;10.52;;;8.85;;
46339;SDS011;47273;49.274;8.708;2022-08-25T19:24:02;10.93;;;9.00;;
46339;SDS011;47273;49.274;8.708;2022-08-25T19:26:29;9.77;;;8.77;;
46339;SDS011;47273;49.274;8.708;2022-08-25T19:28:55;10.90;;;8.45;;
46339;SDS011;47273;49.274;8.708;2022-08-25T19:31:22;9.25;;;7.72;;
46339;SDS011;47273;49.274;8.708;2022-08-25T19:33:55;12.00;;;8.13;;
46339;SDS011;47273;49.274;8.708;2022-08-25T19:36:24;10.27;;;7.97;;
46339;SDS011;47273;49.274;8.708;2022-08-25T19:38:51;10.82;;;8.30;;
46339;SDS011;47273;49.274;8.708;2022-08-25T19:41:18;9.55;;;8.07;;
46339;SDS011;47273;49.274;8.708;2022-08-25T19:43:47;10.25;;;8.35;;
46339;SDS011;47273;49.274;8.708;2022-08-25T19:46:14;13.60;;;8.68;;
46339;SDS011;47273;49.274;8.708;2022-08-25T19:48:40;11.70;;;8.50;;
46339;SDS011;47273;49.274;8.708;2022-08-25T19:51:06;10.27;;;8.40;;
46339;SDS011;47273;49.274;8.708;2022-08-25T19:53:32;9.48;;;7.88;;
46339;SDS011;47273;49.274;8.708;2022-08-25T19:55:58;9.57;;;7.90;;
46339;SDS011;47273;49.274;8.708;2022-08-25T19:58:25;10.63;;;7.60;;
46339;SDS011;47273;49.274;8.708;2022-08-25T20:00:52;14.45;;;8.60;;
46339;SDS011;47273;49.274;8.708;2022-08-25T20:03:18;10.15;;;9.15;;
46339;SDS011;47273;49.274;8.708;2022-08-25T20:05:44;12.75;;;8.82;;
46339;SDS011;47273;49.274;8.708;2022-08-25T20:08:10;9.75;;;7.95;;
46339;SDS011;47273;49.274;8.708;2022-08-25T20:10:36;14.95;;;9.15;;
46339;SDS011;47273;49.274;8.708;2022-08-25T20:13:02;11.07;;;9.75;;
46339;SDS011;47273;49.274;8.708;2022-08-25T20:15:28;10.23;;;9.02;;
46339;SDS011;47273;49.274;8.708;2022-08-25T20:17:55;11.23;;;9.45;;
46339;SDS011;47273;49.274;8.708;2022-08-25T20:20:21;10.40;;;8.93;;
46339;SDS011;47273;49.274;8.708;2022-08-25T20:22:48;12.35;;;9.35;;
46339;SDS011;47273;49.274;8.708;2022-08-25T20:25:19;10.00;;;9.00;;
46339;SDS011;47273;49.274;8.708;2022-08-25T20:27:50;9.95;;;8.95;;
